Time;durP1;ratioP1;P1;durP2;ratioP2;P2;SDS_P1;SDS_P2;PMS_P1;PMS_P2;Temp;Humidity;BMP_temperature;BMP_pressure;BME280_temperature;BME280_humidity;BME280_pressure;Samples;Min_cycle;Max_cycle;Signal;HPM_P1;HPM_P2
2024/01/27 00:00:31;;;;;;;;;7.50;2.00;;;;;5.76;82.73;103367.09;4876435;29;11154;-66
2024/01/27 00:02:58;;;;;;;;;4.25;2.50;;;;;5.74;82.65;103365.47;4891893;29;11221;-66
2024/01/27 00:05:25;;;;;;;;;5.00;3.00;;;;;5.72;82.33;103376.25;4893753;29;11434;-66
2024/01/27 00:07:55;;;;;;;;;5.75;4.25;;;;;5.69;82.52;103376.47;4877763;29;11180;-67
2024/01/27 00:10:22;;;;;;;;;5.50;2.00;;;;;5.67;82.45;103389.94;4893755;29;11426;-67
2024/01/27 00:12:48;;;;;;;;;2.00;1.00;;;;;5.67;82.33;103389.03;4894479;29;11178;-66
2024/01/27 00:15:15;;;;;;;;;7.25;4.00;;;;;5.65;82.87;103385.63;4894576;29;11250;-67
2024/01/27 00:17:42;;;;;;;;;1.50;1.50;;;;;5.66;82.68;103380.16;4860633;29;12140;-68
2024/01/27 00:20:08;;;;;;;;;5.50;4.00;;;;;5.66;83.20;103382.84;4889878;29;12123;-66
2024/01/27 00:22:35;;;;;;;;;2.00;1.00;;;;;5.65;82.92;103386.47;4876792;29;11472;-66
2024/01/27 00:25:02;;;;;;;;;5.00;4.00;;;;;5.63;82.69;103369.72;4878198;29;11433;-66
2024/01/27 00:27:28;;;;;;;;;1.25;1.25;;;;;5.62;83.16;103369.78;4894634;29;11146;-67
2024/01/27 00:29:55;;;;;;;;;1.25;1.25;;;;;5.61;82.73;103368.94;4893418;29;12142;-68
2024/01/27 00:32:22;;;;;;;;;2.00;2.00;;;;;5.61;83.11;103370.75;4894098;29;11938;-68
2024/01/27 00:34:48;;;;;;;;;3.50;1.00;;;;;5.62;83.17;103367.97;4894888;29;11082;-66
2024/01/27 00:37:15;;;;;;;;;2.50;2.50;;;;;5.61;83.44;103376.94;4894613;29;11247;-66
2024/01/27 00:39:41;;;;;;;;;4.00;4.00;;;;;5.59;83.54;103376.22;4895368;29;11443;-66
2024/01/27 00:42:08;;;;;;;;;4.00;1.50;;;;;5.54;83.42;103388.13;4892993;29;11235;-68
2024/01/27 00:44:35;;;;;;;;;4.50;1.50;;;;;5.52;83.84;103382.03;4880534;29;11468;-66
2024/01/27 00:47:02;;;;;;;;;5.00;4.00;;;;;5.49;83.87;103375.06;4904682;29;11318;-66
2024/01/27 00:49:30;;;;;;;;;4.00;1.25;;;;;5.51;83.60;103380.31;4884640;29;11580;-67
2024/01/27 00:51:57;;;;;;;;;3.00;1.25;;;;;5.48;83.93;103375.19;4891508;29;11559;-68
2024/01/27 00:54:25;;;;;;;;;6.00;2.00;;;;;5.49;83.89;103379.56;4898739;29;12551;-66
2024/01/27 00:56:52;;;;;;;;;4.00;2.50;;;;;5.49;83.81;103384.91;4898156;29;11624;-66
2024/01/27 00:59:19;;;;;;;;;2.00;1.75;;;;;5.46;83.98;103389.47;4897968;29;11545;-66
2024/01/27 01:01:45;;;;;;;;;1.00;1.00;;;;;5.47;83.73;103390.34;4883824;29;11326;-66
2024/01/27 01:04:12;;;;;;;;;1.75;1.75;;;;;5.47;84.49;103390.34;4898481;29;11306;-66
2024/01/27 01:06:40;;;;;;;;;4.00;2.00;;;;;5.45;84.24;103390.44;4898207;29;11203;-66
2024/01/27 01:09:07;;;;;;;;;1.00;1.00;;;;;5.45;84.26;103387.75;4895262;29;11616;-67
2024/01/27 01:11:33;;;;;;;;;2.00;1.00;;;;;5.43;83.87;103391.50;4880167;29;11528;-67
2024/01/27 01:14:04;;;;;;;;;1.00;1.00;;;;;5.42;84.04;103384.44;4886245;29;11513;-67
2024/01/27 01:16:30;;;;;;;;;2.00;2.00;;;;;5.36;84.39;103385.69;4880501;29;11642;-67
2024/01/27 01:18:57;;;;;;;;;5.00;4.00;;;;;5.34;84.40;103395.59;4897173;29;11557;-67
2024/01/27 01:21:23;;;;;;;;;1.00;1.00;;;;;5.32;84.69;103386.84;4897890;29;11526;-66
2024/01/27 01:23:50;;;;;;;;;2.00;2.00;;;;;5.32;84.85;103391.31;4880180;29;11223;-67
2024/01/27 01:26:17;;;;;;;;;2.50;1.50;;;;;5.32;85.14;103384.16;4897608;29;11153;-67
2024/01/27 01:28:43;;;;;;;;;4.00;1.00;;;;;5.32;84.80;103383.31;4905247;29;11328;-66
2024/01/27 01:31:10;;;;;;;;;5.75;1.75;;;;;5.29;84.74;103389.69;4898350;29;11289;-67
2024/01/27 01:33:36;;;;;;;;;4.25;1.00;;;;;5.27;84.79;103386.28;4897865;29;12659;-67
2024/01/27 01:36:03;;;;;;;;;2.00;2.00;;;;;5.24;84.48;103383.78;4898222;29;12036;-67
2024/01/27 01:38:30;;;;;;;;;1.50;0.00;;;;;5.22;84.64;103385.69;4894453;29;11941;-67
2024/01/27 01:40:57;;;;;;;;;1.75;1.75;;;;;5.23;85.20;103392.78;4897486;29;11147;-67
2024/01/27 01:43:23;;;;;;;;;5.50;4.00;;;;;5.20;84.77;103392.97;4914512;29;11536;-67
2024/01/27 01:45:52;;;;;;;;;2.00;2.00;;;;;5.18;84.97;103397.53;4891818;29;11923;-67
2024/01/27 01:48:20;;;;;;;;;4.00;3.50;;;;;5.19;84.55;103396.59;4897503;29;12160;-67
2024/01/27 01:50:47;;;;;;;;;4.00;1.25;;;;;5.14;85.10;103393.31;4878504;29;11472;-67
2024/01/27 01:53:14;;;;;;;;;1.75;1.75;;;;;5.15;84.90;103390.56;4896548;29;11571;-67
2024/01/27 01:55:40;;;;;;;;;4.00;4.00;;;;;5.16;84.86;103397.63;4897577;29;11553;-67
2024/01/27 01:58:07;;;;;;;;;1.25;1.25;;;;;5.16;85.39;103392.28;4896011;29;12375;-67
2024/01/27 02:00:33;;;;;;;;;2.00;2.00;;;;;5.18;84.77;103393.03;4897257;29;11568;-66
2024/01/27 02:03:00;;;;;;;;;3.50;3.50;;;;;5.18;85.13;103400.19;4897114;29;11559;-66
2024/01/27 02:05:27;;;;;;;;;2.50;2.50;;;;;5.18;85.32;103402.84;4895689;29;11521;-66
2024/01/27 02:07:56;;;;;;;;;2.00;2.00;;;;;5.15;84.76;103398.59;4896219;29;11448;-66
2024/01/27 02:10:22;;;;;;;;;2.00;1.75;;;;;5.11;85.01;103405.06;4897297;29;11436;-67
2024/01/27 02:12:49;;;;;;;;;4.00;4.00;;;;;5.10;85.67;103399.81;4880837;29;11465;-66
2024/01/27 02:15:15;;;;;;;;;1.00;1.00;;;;;4.97;85.71;103389.91;4897340;29;11441;-67
2024/01/27 02:17:42;;;;;;;;;3.25;1.00;;;;;5.00;85.94;103388.00;4878757;29;11526;-67
2024/01/27 02:20:09;;;;;;;;;1.50;1.00;;;;;5.02;85.61;103394.09;4893487;29;11467;-67
2024/01/27 02:22:36;;;;;;;;;2.50;2.00;;;;;5.02;85.19;103394.09;4895160;29;11405;-66
2024/01/27 02:25:03;;;;;;;;;1.00;1.00;;;;;4.99;85.39;103394.31;4891709;29;11258;-67
2024/01/27 02:27:30;;;;;;;;;4.25;1.50;;;;;4.96;85.58;103392.66;4879626;29;11422;-69
2024/01/27 02:29:57;;;;;;;;;5.00;4.00;;;;;4.97;85.51;103402.38;4895877;29;11566;-67
2024/01/27 02:32:23;;;;;;;;;4.50;4.50;;;;;4.95;85.19;103412.31;4896662;29;11556;-67
2024/01/27 02:34:50;;;;;;;;;2.00;2.00;;;;;4.86;85.17;103416.41;4894523;29;11449;-66
2024/01/27 02:37:19;;;;;;;;;4.00;4.00;;;;;4.83;85.62;103410.41;4895094;29;11451;-67
2024/01/27 02:39:45;;;;;;;;;1.75;1.50;;;;;4.82;85.59;103400.66;4896661;29;11431;-67
2024/01/27 02:42:12;;;;;;;;;7.25;4.00;;;;;4.81;85.12;103409.63;4896771;29;11434;-67
2024/01/27 02:44:39;;;;;;;;;3.25;3.25;;;;;4.80;85.50;103398.09;4893019;29;11571;-67
2024/01/27 02:47:05;;;;;;;;;3.00;1.00;;;;;4.83;85.23;103399.72;4897866;29;11576;-67
2024/01/27 02:49:32;;;;;;;;;5.25;4.25;;;;;4.81;85.53;103399.78;4893912;29;12307;-67
2024/01/27 02:51:58;;;;;;;;;2.50;2.00;;;;;4.83;86.13;103399.72;4896148;29;11721;-67
2024/01/27 02:54:25;;;;;;;;;1.25;1.25;;;;;4.82;85.45;103401.53;4896644;29;11559;-67
2024/01/27 02:56:52;;;;;;;;;4.75;2.00;;;;;4.81;85.78;103388.28;4893964;29;11577;-66
2024/01/27 02:59:19;;;;;;;;;0.50;0.50;;;;;4.80;85.36;103392.75;4895842;29;11536;-66
2024/01/27 03:01:45;;;;;;;;;2.00;1.00;;;;;4.79;85.24;103399.06;4890595;29;11545;-66
2024/01/27 03:04:12;;;;;;;;;2.50;1.00;;;;;4.81;85.89;103393.59;4914166;29;11533;-66
2024/01/27 03:06:38;;;;;;;;;1.75;1.75;;;;;4.79;85.66;103400.88;4879134;29;11540;-66
2024/01/27 03:09:05;;;;;;;;;1.00;1.00;;;;;4.75;85.80;103386.00;4877340;29;11536;-66
2024/01/27 03:11:32;;;;;;;;;4.00;2.00;;;;;4.70;86.02;103389.81;4896098;29;11535;-67
2024/01/27 03:13:58;;;;;;;;;8.50;5.50;;;;;4.68;85.54;103389.03;4900792;29;11526;-66
2024/01/27 03:16:25;;;;;;;;;2.00;2.00;;;;;4.67;86.00;103386.47;4906731;29;11539;-66
2024/01/27 03:18:51;;;;;;;;;10.25;5.00;;;;;4.66;86.61;103390.09;4914505;29;11547;-67
2024/01/27 03:21:18;;;;;;;;;6.75;5.00;;;;;4.68;86.31;103388.16;4907055;29;12826;-66
2024/01/27 03:23:45;;;;;;;;;1.75;1.00;;;;;4.70;86.38;103391.63;4890963;29;11552;-67
2024/01/27 03:26:11;;;;;;;;;1.75;1.75;;;;;4.70;86.55;103388.94;4877765;29;12265;-67
2024/01/27 03:28:38;;;;;;;;;4.50;4.50;;;;;4.67;86.46;103395.31;4883307;29;11684;-66
2024/01/27 03:31:05;;;;;;;;;6.75;2.00;;;;;4.62;86.41;103401.88;4890652;29;11614;-66
2024/01/27 03:33:31;;;;;;;;;3.50;3.50;;;;;4.60;86.51;103395.78;4895594;29;11550;-67
2024/01/27 03:35:58;;;;;;;;;4.50;3.00;;;;;4.56;86.57;103400.44;4895622;29;11580;-66
2024/01/27 03:38:24;;;;;;;;;5.00;2.00;;;;;4.58;87.00;103409.22;4891715;29;11536;-65
2024/01/27 03:40:51;;;;;;;;;4.75;2.50;;;;;4.61;87.23;103416.16;4890483;29;11542;-66
2024/01/27 03:43:18;;;;;;;;;1.00;1.00;;;;;4.61;86.88;103410.81;4894057;29;11555;-66
2024/01/27 03:45:45;;;;;;;;;5.00;4.00;;;;;4.55;87.32;103408.53;4892541;29;12341;-67
2024/01/27 03:48:11;;;;;;;;;4.00;1.75;;;;;4.59;86.88;103412.75;4878924;29;11611;-66
2024/01/27 03:50:38;;;;;;;;;4.50;2.00;;;;;4.59;87.52;103413.59;4895375;29;11668;-66
2024/01/27 03:53:05;;;;;;;;;4.25;3.50;;;;;4.59;87.09;103412.75;4893143;29;11599;-67
2024/01/27 03:55:32;;;;;;;;;5.25;3.50;;;;;4.56;87.23;103427.09;4893708;29;11414;-66
2024/01/27 03:57:59;;;;;;;;;5.50;3.50;;;;;4.53;87.35;103423.75;4895082;29;11494;-67
2024/01/27 04:00:27;;;;;;;;;4.00;4.00;;;;;4.51;87.32;103405.19;4894879;29;12175;-67
2024/01/27 04:02:53;;;;;;;;;9.00;5.25;;;;;4.51;87.48;103402.53;4895204;29;11514;-67
2024/01/27 04:05:20;;;;;;;;;7.50;7.50;;;;;4.53;87.20;103394.41;4888545;29;11465;-67
2024/01/27 04:07:46;;;;;;;;;4.50;3.00;;;;;4.54;88.13;103404.13;4877205;29;11520;-67
2024/01/27 04:10:13;;;;;;;;;5.75;4.00;;;;;4.53;87.61;103411.28;4895448;29;12209;-67
2024/01/27 04:12:40;;;;;;;;;6.50;5.00;;;;;4.54;87.54;103414.81;4895227;29;11433;-67
2024/01/27 04:15:07;;;;;;;;;4.25;3.00;;;;;4.56;87.68;103410.25;4879234;29;11456;-67
2024/01/27 04:17:33;;;;;;;;;3.50;1.75;;;;;4.54;87.87;103413.03;4881886;29;11480;-67
2024/01/27 04:20:00;;;;;;;;;4.50;4.50;;;;;4.52;87.28;103408.72;4897619;29;11456;-67
2024/01/27 04:22:28;;;;;;;;;4.75;3.50;;;;;4.49;88.03;103411.56;4898744;29;11446;-67
2024/01/27 04:24:54;;;;;;;;;5.25;5.25;;;;;4.48;87.64;103413.38;4898566;29;11434;-67
2024/01/27 04:27:21;;;;;;;;;3.00;1.75;;;;;4.49;88.12;103414.22;4882492;29;11580;-68
2024/01/27 04:29:48;;;;;;;;;4.00;4.00;;;;;4.51;88.14;103418.53;4898738;29;11447;-67
2024/01/27 04:32:14;;;;;;;;;3.00;3.00;;;;;4.50;88.24;103423.94;4898681;29;12171;-67
2024/01/27 04:34:41;;;;;;;;;6.25;6.25;;;;;4.50;87.48;103423.94;4899332;29;12235;-67
2024/01/27 04:37:08;;;;;;;;;7.25;4.75;;;;;4.46;88.12;103426.81;4898675;29;11520;-68
2024/01/27 04:39:34;;;;;;;;;4.00;4.00;;;;;4.44;87.65;103423.34;4898588;29;11526;-68
2024/01/27 04:42:01;;;;;;;;;2.00;2.00;;;;;4.45;87.96;103426.88;4898505;29;12149;-68
2024/01/27 04:44:28;;;;;;;;;6.25;5.00;;;;;4.46;88.42;103429.47;4894313;29;11458;-67
2024/01/27 04:46:54;;;;;;;;;4.75;4.75;;;;;4.45;88.04;103429.53;4897483;29;11442;-67
2024/01/27 04:49:21;;;;;;;;;4.00;4.00;;;;;4.41;87.55;103434.19;4890082;29;11511;-67
2024/01/27 04:51:48;;;;;;;;;5.50;4.00;;;;;4.41;88.03;103422.66;4881698;29;11483;-68
2024/01/27 04:54:15;;;;;;;;;4.00;3.00;;;;;4.41;87.67;103433.34;4898407;29;11462;-68
2024/01/27 04:56:42;;;;;;;;;5.00;2.00;;;;;4.40;88.49;103429.81;4897540;29;11447;-68
2024/01/27 04:59:08;;;;;;;;;4.75;4.75;;;;;4.40;87.95;103421.81;4896776;29;11461;-68
2024/01/27 05:01:35;;;;;;;;;5.00;3.50;;;;;4.43;88.37;103426.97;4881365;29;11450;-68
2024/01/27 05:04:01;;;;;;;;;4.25;1.75;;;;;4.42;88.00;103421.75;4897976;29;11537;-67
2024/01/27 05:06:28;;;;;;;;;1.25;1.25;;;;;4.40;87.86;103426.28;4897826;29;12177;-67
2024/01/27 05:08:55;;;;;;;;;6.00;2.00;;;;;4.39;88.22;103425.44;4881225;29;11436;-67
2024/01/27 05:11:31;;;;;;;;;5.00;3.50;;;;;4.39;87.82;103428.13;4895034;29;12123;-67
2024/01/27 05:14:00;;;;;;;;;6.25;4.00;;;;;4.34;88.17;103416.88;4897277;29;11445;-67
2024/01/27 05:16:27;;;;;;;;;4.00;4.00;;;;;4.35;88.38;103415.06;4897560;29;11435;-67
2024/01/27 05:18:54;;;;;;;;;3.00;2.00;;;;;4.37;88.32;103429.13;4897660;29;11517;-67
2024/01/27 05:21:21;;;;;;;;;2.00;2.00;;;;;4.39;87.85;103429.91;4893931;29;11422;-67
2024/01/27 05:23:47;;;;;;;;;7.00;4.00;;;;;4.33;88.05;103419.59;4894279;29;11455;-67
2024/01/27 05:26:14;;;;;;;;;6.50;4.25;;;;;4.28;87.66;103422.53;4895618;29;11446;-68
2024/01/27 05:28:41;;;;;;;;;4.00;4.00;;;;;4.27;88.07;103425.31;4895084;29;11433;-67
2024/01/27 05:31:08;;;;;;;;;7.25;4.75;;;;;4.25;88.70;103433.38;4896946;29;11438;-67
2024/01/27 05:33:36;;;;;;;;;5.50;4.00;;;;;4.27;88.38;103441.31;4897644;29;11709;-67
2024/01/27 05:36:03;;;;;;;;;5.25;2.00;;;;;4.20;88.52;103428.31;4863929;29;11588;-67
2024/01/27 05:38:31;;;;;;;;;9.50;4.75;;;;;4.20;88.31;103422.13;4892351;29;11442;-67
2024/01/27 05:41:02;;;;;;;;;8.50;6.75;;;;;4.10;88.19;103421.81;4875299;29;11423;-68
2024/01/27 05:43:29;;;;;;;;;3.50;3.50;;;;;4.07;88.46;103418.47;4880544;29;11598;-67
2024/01/27 05:45:55;;;;;;;;;7.50;4.75;;;;;4.07;88.65;103413.13;4897077;29;12230;-67
2024/01/27 05:48:22;;;;;;;;;6.00;4.00;;;;;4.08;88.67;103413.03;4897210;29;11470;-67
2024/01/27 05:50:56;;;;;;;;;4.75;4.00;;;;;4.07;88.77;103407.81;4896163;29;11564;-66
2024/01/27 05:53:23;;;;;;;;;4.75;4.75;;;;;4.01;88.90;103403.69;4897599;29;11467;-67
2024/01/27 05:55:50;;;;;;;;;10.00;8.50;;;;;3.93;88.72;103412.13;4880273;29;11506;-69
2024/01/27 05:58:17;;;;;;;;;10.00;7.00;;;;;3.94;89.03;103420.97;4876810;29;11508;-66
2024/01/27 06:00:44;;;;;;;;;10.75;8.00;;;;;3.92;89.00;103421.03;4895903;29;11594;-67
2024/01/27 06:03:10;;;;;;;;;10.50;9.75;;;;;3.93;89.24;103425.44;4879629;29;11644;-67
2024/01/27 06:05:37;;;;;;;;;8.75;8.75;;;;;3.94;89.49;103423.66;4896972;29;11602;-67
2024/01/27 06:08:05;;;;;;;;;9.25;7.25;;;;;3.95;89.55;103423.53;4897233;29;11570;-66
2024/01/27 06:10:32;;;;;;;;;11.50;8.25;;;;;3.93;89.09;103421.94;4895976;29;11636;-67
2024/01/27 06:12:59;;;;;;;;;8.00;8.00;;;;;3.91;89.38;103427.31;4896131;29;11580;-67
2024/01/27 06:15:25;;;;;;;;;7.50;5.00;;;;;3.88;88.90;103424.81;4880425;29;11586;-67
2024/01/27 06:17:52;;;;;;;;;9.00;9.00;;;;;3.89;88.77;103428.34;4893825;29;11579;-67
2024/01/27 06:20:18;;;;;;;;;11.00;11.00;;;;;3.90;89.46;103438.94;4884906;29;11497;-67
2024/01/27 06:22:45;;;;;;;;;7.50;7.50;;;;;3.89;89.23;103437.22;4896030;29;11536;-67
2024/01/27 06:25:12;;;;;;;;;10.50;7.50;;;;;3.86;88.45;103424.06;4894105;29;11484;-67
2024/01/27 06:27:41;;;;;;;;;7.75;7.75;;;;;3.83;89.32;103413.59;4896144;29;11407;-67
2024/01/27 06:30:09;;;;;;;;;11.50;8.50;;;;;3.86;89.19;103426.75;4879449;29;11488;-67
2024/01/27 06:32:36;;;;;;;;;10.75;10.25;;;;;3.89;89.75;103423.91;4888839;29;11574;-67
2024/01/27 06:35:04;;;;;;;;;11.25;8.00;;;;;3.90;89.57;103425.63;4895901;29;11582;-67
2024/01/27 06:37:30;;;;;;;;;14.00;10.00;;;;;3.89;89.46;103415.91;4895312;29;11438;-67
2024/01/27 06:39:57;;;;;;;;;11.00;10.75;;;;;3.90;89.64;103406.13;4876406;29;11450;-67
2024/01/27 06:42:23;;;;;;;;;8.00;7.75;;;;;3.90;89.24;103416.78;4893353;29;11499;-67
2024/01/27 06:44:50;;;;;;;;;12.00;12.00;;;;;3.87;89.28;103422.25;4895136;29;11523;-67
2024/01/27 06:47:17;;;;;;;;;13.00;13.00;;;;;3.87;89.53;103431.13;4896697;29;11648;-67
2024/01/27 06:49:43;;;;;;;;;10.25;9.50;;;;;3.85;89.13;103426.81;4896217;29;11650;-67
2024/01/27 06:52:12;;;;;;;;;12.00;11.00;;;;;3.82;89.24;103422.53;4896103;29;11636;-67
2024/01/27 06:54:43;;;;;;;;;10.50;9.00;;;;;3.80;89.21;103421.75;4896063;29;11625;-66
2024/01/27 06:57:20;;;;;;;;;9.00;4.00;;;;;3.78;89.33;103428.13;4876184;29;11650;-67
2024/01/27 06:59:55;;;;;;;;;13.00;12.00;;;;;3.77;89.07;103423.72;4887838;29;12297;-67
2024/01/27 07:02:23;;;;;;;;;17.25;15.00;;;;;3.72;89.44;103431.97;4895443;29;11724;-67
2024/01/27 07:04:50;;;;;;;;;19.50;17.50;;;;;3.70;89.46;103432.06;4904879;29;11692;-67
2024/01/27 07:07:21;;;;;;;;;16.00;14.75;;;;;3.67;89.32;103432.22;4914622;29;11651;-67
2024/01/27 07:09:47;;;;;;;;;13.50;11.00;;;;;3.67;89.42;103426.03;4914971;29;11619;-67
2024/01/27 07:12:14;;;;;;;;;16.25;12.25;;;;;3.65;89.40;103427.94;4913533;29;11659;-66
2024/01/27 07:14:41;;;;;;;;;14.50;13.25;;;;;3.66;89.86;103421.66;4895583;29;11658;-67
2024/01/27 07:17:07;;;;;;;;;13.75;11.25;;;;;3.67;90.07;103420.72;4893377;29;11674;-67
2024/01/27 07:19:34;;;;;;;;;16.25;15.50;;;;;3.68;89.60;103433.09;4894535;29;12386;-67
2024/01/27 07:22:01;;;;;;;;;17.50;13.00;;;;;3.69;89.69;103414.38;4893677;29;11745;-67
2024/01/27 07:24:27;;;;;;;;;16.25;12.00;;;;;3.72;89.45;103426.66;4895419;29;11773;-67
2024/01/27 07:26:54;;;;;;;;;19.00;14.25;;;;;3.73;89.71;103439.03;4892397;29;11794;-67
2024/01/27 07:29:22;;;;;;;;;11.00;11.00;;;;;3.74;89.50;103440.75;4895907;29;11653;-66
2024/01/27 07:31:49;;;;;;;;;17.75;12.50;;;;;3.75;89.48;103444.28;4895196;29;11631;-67
2024/01/27 07:34:16;;;;;;;;;13.00;12.50;;;;;3.71;89.80;103441.78;4895325;29;11626;-67
2024/01/27 07:36:44;;;;;;;;;14.25;13.75;;;;;3.72;89.70;103443.47;4894071;29;11704;-67
2024/01/27 07:39:10;;;;;;;;;13.75;13.75;;;;;3.68;89.55;103435.75;4891981;29;11674;-67
2024/01/27 07:41:37;;;;;;;;;13.50;11.00;;;;;3.70;89.75;103434.72;4896684;29;12616;-67
2024/01/27 07:44:08;;;;;;;;;12.50;12.50;;;;;3.73;89.53;103436.38;4906389;29;12389;-65
2024/01/27 07:46:35;;;;;;;;;13.00;11.25;;;;;3.75;89.42;103429.16;4903222;29;11552;-67
2024/01/27 07:49:02;;;;;;;;;14.75;12.25;;;;;3.77;89.90;103435.25;4894819;29;11565;-67
2024/01/27 07:51:30;;;;;;;;;15.00;11.50;;;;;3.82;89.79;103440.31;4892957;29;11550;-67
2024/01/27 07:53:56;;;;;;;;;13.75;12.00;;;;;3.83;89.88;103448.22;4894691;29;11540;-68
2024/01/27 07:56:23;;;;;;;;;12.00;12.00;;;;;3.88;89.89;103461.28;4887293;29;11745;-67
2024/01/27 07:58:50;;;;;;;;;13.25;13.25;;;;;3.91;89.88;103461.13;4878011;29;11677;-67
2024/01/27 08:01:17;;;;;;;;;15.00;12.00;;;;;3.93;89.76;103453.91;4895272;29;11553;-67
2024/01/27 08:03:44;;;;;;;;;15.75;11.50;;;;;3.93;89.59;103457.44;4890440;29;11644;-66
2024/01/27 08:06:16;;;;;;;;;16.50;14.00;;;;;3.97;89.86;103463.44;4895120;29;11562;-67
2024/01/27 08:08:48;;;;;;;;;19.50;19.50;;;;;3.97;89.75;103466.13;4894028;29;11524;-67
2024/01/27 08:11:15;;;;;;;;;22.75;18.50;;;;;3.94;89.87;103459.13;4875182;29;11694;-66
2024/01/27 08:13:42;;;;;;;;;17.25;13.50;;;;;3.95;89.77;103452.00;4875014;29;11656;-67
2024/01/27 08:16:15;;;;;;;;;15.50;15.00;;;;;4.01;89.72;103461.44;4875193;29;11647;-69
2024/01/27 08:18:43;;;;;;;;;17.00;15.50;;;;;4.07;90.21;103459.31;4887150;29;11608;-69
2024/01/27 08:21:14;;;;;;;;;18.25;15.75;;;;;4.14;90.13;103458.00;4878341;29;11561;-66
2024/01/27 08:23:41;;;;;;;;;14.75;12.50;;;;;4.15;89.87;103458.88;4891022;29;11559;-67
2024/01/27 08:26:07;;;;;;;;;16.75;13.25;;;;;4.23;89.48;103456.63;4894608;29;11505;-66
2024/01/27 08:28:34;;;;;;;;;16.25;15.75;;;;;4.31;89.23;103469.50;4877931;29;11555;-66
2024/01/27 08:31:01;;;;;;;;;16.50;15.00;;;;;4.27;89.07;103471.50;4894919;29;11557;-66
2024/01/27 08:33:28;;;;;;;;;13.00;13.00;;;;;4.52;90.52;103467.41;4890821;29;11538;-66
2024/01/27 08:35:55;;;;;;;;;20.50;16.00;;;;;4.62;89.62;103460.59;4893382;29;11483;-66
2024/01/27 08:38:22;;;;;;;;;12.75;12.00;;;;;4.69;89.07;103467.25;4893630;29;11814;-67
2024/01/27 08:40:49;;;;;;;;;15.25;15.25;;;;;4.63;88.56;103464.97;4894426;29;11536;-66
2024/01/27 08:43:16;;;;;;;;;23.25;18.75;;;;;4.63;88.52;103465.81;4878104;29;11619;-67
2024/01/27 08:45:42;;;;;;;;;17.25;16.50;;;;;4.70;88.17;103471.66;4894546;29;11543;-66
2024/01/27 08:48:11;;;;;;;;;22.25;18.75;;;;;4.75;88.41;103463.38;4893976;29;11533;-67
2024/01/27 08:50:38;;;;;;;;;21.50;18.25;;;;;4.74;87.98;103464.31;4894254;29;12460;-67
2024/01/27 08:53:05;;;;;;;;;19.75;18.50;;;;;4.72;87.59;103464.41;4875932;29;11558;-67
2024/01/27 08:55:31;;;;;;;;;18.50;17.25;;;;;4.78;87.93;103473.84;4893794;29;11563;-67
2024/01/27 08:57:58;;;;;;;;;22.50;20.00;;;;;4.72;87.80;103470.59;4892084;29;11507;-67
2024/01/27 09:00:24;;;;;;;;;20.25;18.00;;;;;4.67;87.31;103471.84;4894688;29;11556;-67
2024/01/27 09:02:53;;;;;;;;;21.50;20.75;;;;;4.61;87.99;103473.03;4895226;29;11545;-67
2024/01/27 09:05:20;;;;;;;;;19.75;18.50;;;;;4.61;87.85;103467.69;4880766;29;11554;-67
2024/01/27 09:07:46;;;;;;;;;21.50;19.75;;;;;4.52;87.85;103472.72;4878245;29;11552;-67
2024/01/27 09:10:15;;;;;;;;;17.50;16.50;;;;;4.48;88.17;103469.38;4898069;29;11621;-67
2024/01/27 09:12:42;;;;;;;;;25.00;22.00;;;;;4.48;88.52;103472.03;4883809;29;11751;-67
2024/01/27 09:15:10;;;;;;;;;24.75;17.50;;;;;4.53;88.70;103480.63;4897503;29;12288;-67
2024/01/27 09:17:37;;;;;;;;;18.75;18.50;;;;;4.59;88.70;103474.09;4880291;29;11696;-67
2024/01/27 09:20:04;;;;;;;;;27.25;24.00;;;;;4.64;88.98;103477.34;4880224;29;11520;-67
2024/01/27 09:22:31;;;;;;;;;22.25;22.25;;;;;4.72;88.85;103480.41;4896201;29;11668;-66
2024/01/27 09:24:57;;;;;;;;;24.00;22.50;;;;;4.78;88.46;103488.06;4895643;29;11659;-67
2024/01/27 09:27:24;;;;;;;;;27.25;26.50;;;;;4.82;88.26;103486.03;4897151;29;11537;-66
2024/01/27 09:29:51;;;;;;;;;22.00;21.25;;;;;4.81;88.12;103492.34;4895863;29;11552;-67
2024/01/27 09:32:17;;;;;;;;;22.50;22.00;;;;;4.89;88.14;103488.25;4893176;29;11517;-67
2024/01/27 09:34:44;;;;;;;;;22.75;21.00;;;;;4.99;88.23;103506.41;4893064;29;11782;-67
2024/01/27 09:37:11;;;;;;;;;22.75;21.25;;;;;5.05;88.11;103511.38;4898253;29;11640;-67
2024/01/27 09:39:37;;;;;;;;;24.00;19.00;;;;;5.18;87.68;103517.69;4892863;29;11714;-67
2024/01/27 09:42:07;;;;;;;;;30.25;26.75;;;;;5.20;86.91;103515.78;4893223;29;11522;-67
2024/01/27 09:44:35;;;;;;;;;23.25;20.25;;;;;5.26;87.07;103511.88;4890066;29;11530;-67
2024/01/27 09:47:02;;;;;;;;;20.75;20.25;;;;;5.31;87.39;103505.31;4894661;29;11490;-66
2024/01/27 09:49:30;;;;;;;;;20.00;19.50;;;;;5.34;86.47;103515.78;4893304;29;11680;-66
2024/01/27 09:51:58;;;;;;;;;26.25;24.25;;;;;5.33;86.63;103508.75;4895913;29;11672;-66
2024/01/27 09:54:24;;;;;;;;;28.75;26.00;;;;;5.38;86.81;103513.78;4893655;29;11895;-66
2024/01/27 09:56:51;;;;;;;;;21.75;18.50;;;;;5.44;86.63;103524.97;4888480;29;11629;-66
2024/01/27 09:59:20;;;;;;;;;24.50;20.75;;;;;5.49;86.56;103529.16;4896722;29;11495;-66
2024/01/27 10:01:48;;;;;;;;;18.50;18.50;;;;;5.54;86.75;103527.06;4877363;29;11568;-67
2024/01/27 10:04:15;;;;;;;;;25.25;20.25;;;;;5.59;86.66;103524.94;4895324;29;11478;-68
2024/01/27 10:06:42;;;;;;;;;28.50;22.00;;;;;5.60;86.49;103530.22;4895812;29;11521;-67
2024/01/27 10:09:09;;;;;;;;;17.00;16.50;;;;;5.69;86.72;103528.78;4876733;29;12245;-67
2024/01/27 10:11:41;;;;;;;;;22.25;18.00;;;;;5.78;86.62;103535.34;4895133;29;11636;-67
2024/01/27 10:14:08;;;;;;;;;20.75;19.75;;;;;5.82;86.49;103537.72;4879837;29;11470;-66
2024/01/27 10:16:45;;;;;;;;;21.00;19.25;;;;;5.89;85.71;103530.19;4891219;29;11531;-67
2024/01/27 10:19:18;;;;;;;;;22.25;21.25;;;;;5.95;86.09;103540.50;4878039;29;11578;-67
2024/01/27 10:21:46;;;;;;;;;28.00;24.25;;;;;5.98;86.01;103542.16;4873749;29;11731;-67
2024/01/27 10:24:13;;;;;;;;;19.25;16.50;;;;;5.97;85.77;103545.78;4891302;29;11484;-67
2024/01/27 10:26:40;;;;;;;;;22.25;22.25;;;;;6.04;85.63;103550.66;4895400;29;11524;-67
2024/01/27 10:29:09;;;;;;;;;20.25;18.25;;;;;6.11;85.49;103551.09;4896556;29;11586;-66
2024/01/27 10:31:36;;;;;;;;;23.25;22.00;;;;;6.17;85.41;103548.91;4889296;29;11550;-66
2024/01/27 10:34:09;;;;;;;;;24.00;24.00;;;;;6.17;85.40;103542.69;4895022;29;11483;-67
2024/01/27 10:36:44;;;;;;;;;21.00;18.75;;;;;6.23;85.66;103550.31;4879800;29;11716;-66
2024/01/27 10:39:22;;;;;;;;;17.25;16.50;;;;;6.29;85.43;103541.91;4887029;29;11492;-67
2024/01/27 10:41:51;;;;;;;;;17.00;15.75;;;;;6.34;85.52;103531.75;4877757;29;11481;-66
2024/01/27 10:44:19;;;;;;;;;20.50;20.00;;;;;6.34;85.54;103518.38;4890846;29;11667;-66
2024/01/27 10:46:48;;;;;;;;;18.25;18.25;;;;;6.43;85.23;103519.56;4879133;29;11636;-68
2024/01/27 10:49:17;;;;;;;;;15.75;15.75;;;;;6.50;84.99;103523.56;4891637;29;11470;-67
2024/01/27 10:51:46;;;;;;;;;15.25;15.25;;;;;6.51;85.02;103525.28;4892930;29;11590;-67
2024/01/27 10:54:23;;;;;;;;;25.50;17.75;;;;;6.46;84.98;103526.56;4876066;29;11499;-67
2024/01/27 10:56:52;;;;;;;;;17.00;17.00;;;;;6.43;85.49;103525.78;4893300;29;11498;-68
2024/01/27 10:59:21;;;;;;;;;15.25;15.00;;;;;6.41;85.42;103526.88;4889067;29;11594;-67
2024/01/27 11:01:53;;;;;;;;;17.75;14.75;;;;;6.43;85.19;103527.59;4869330;29;11481;-67
2024/01/27 11:04:21;;;;;;;;;21.00;17.75;;;;;6.42;85.02;103534.78;4893143;29;11492;-67
2024/01/27 11:06:48;;;;;;;;;15.25;15.25;;;;;6.45;85.33;103533.72;4895510;29;11505;-67
2024/01/27 11:09:18;;;;;;;;;13.00;13.00;;;;;6.51;84.65;103532.44;4879295;29;11589;-66
2024/01/27 11:11:47;;;;;;;;;21.00;17.00;;;;;6.49;84.58;103531.72;4877877;29;11663;-66
2024/01/27 11:14:13;;;;;;;;;25.00;24.00;;;;;6.49;85.36;103532.56;4875542;29;11652;-66
2024/01/27 11:16:45;;;;;;;;;17.00;15.00;;;;;6.50;85.15;103528.06;4878854;29;11494;-66
2024/01/27 11:19:12;;;;;;;;;15.00;13.75;;;;;6.52;84.50;103532.34;4878569;29;11474;-66
2024/01/27 11:21:39;;;;;;;;;17.75;16.00;;;;;6.64;84.17;103541.38;4895030;29;11565;-66
2024/01/27 11:24:13;;;;;;;;;11.00;11.00;;;;;6.71;83.82;103539.16;4882686;29;11615;-66
2024/01/27 11:26:40;;;;;;;;;13.00;13.00;;;;;6.73;83.75;103535.44;4889509;29;11579;-66